Time;durP1;ratioP1;P1;durP2;ratioP2;P2;SDS_P1;SDS_P2;PMS_P1;PMS_P2;Temp;Humidity;BMP_temperature;BMP_pressure;BME280_temperature;BME280_humidity;BME280_pressure;Samples;Min_cycle;Max_cycle;Signal;HPM_P1;HPM_P2
2024/01/20 00:01:35;;;;;;;15.80;8.50;;;;;;;-0.85;47.88;102332.56;4929523;28;20047;-75
2024/01/20 00:04:03;;;;;;;14.50;9.30;;;;;;;-0.86;47.67;102328.09;4934025;29;20059;-75
2024/01/20 00:06:31;;;;;;;16.15;8.77;;;;;;;-0.86;47.76;102326.28;4930614;28;20511;-75
2024/01/20 00:08:59;;;;;;;15.10;9.00;;;;;;;-0.87;47.49;102329.00;4931409;29;20134;-75
2024/01/20 00:11:28;;;;;;;16.10;8.82;;;;;;;-0.87;47.70;102326.31;4933435;28;20141;-75
2024/01/20 00:13:56;;;;;;;13.85;9.15;;;;;;;-0.88;47.66;102330.81;4937467;28;20586;-75
2024/01/20 00:16:24;;;;;;;13.88;8.20;;;;;;;-0.88;47.61;102328.13;4952810;23;20037;-74
2024/01/20 00:18:54;;;;;;;15.10;8.63;;;;;;;-0.87;47.75;102337.97;5052974;28;20045;-74
2024/01/20 00:21:22;;;;;;;17.05;8.52;;;;;;;-0.89;47.89;102339.81;5053277;28;20463;-74
2024/01/20 00:23:50;;;;;;;13.18;8.55;;;;;;;-0.89;47.84;102334.44;5053312;28;20136;-74
2024/01/20 00:26:19;;;;;;;14.15;8.65;;;;;;;-0.89;47.84;102336.22;5058633;28;20041;-74
2024/01/20 00:28:47;;;;;;;14.30;8.68;;;;;;;-0.89;47.48;102334.44;5073235;28;20052;-75
2024/01/20 00:31:16;;;;;;;14.70;8.25;;;;;;;-0.89;47.84;102329.06;5072481;28;20075;-74
2024/01/20 00:33:44;;;;;;;12.23;8.13;;;;;;;-0.89;47.71;102326.38;5073318;28;20628;-74
2024/01/20 00:36:13;;;;;;;13.65;8.30;;;;;;;-0.89;47.56;102321.00;5072831;28;20044;-74
2024/01/20 00:38:42;;;;;;;15.43;8.63;;;;;;;-0.90;47.60;102326.38;5073569;28;20044;-74
2024/01/20 00:41:11;;;;;;;14.75;8.57;;;;;;;-0.91;47.34;102328.19;5073540;28;20055;-74
2024/01/20 00:43:39;;;;;;;15.10;8.20;;;;;;;-0.92;47.52;102330.91;5073459;28;20124;-74
2024/01/20 00:46:07;;;;;;;12.93;8.57;;;;;;;-0.93;47.61;102329.13;5071731;28;20423;-74
2024/01/20 00:48:35;;;;;;;15.48;8.40;;;;;;;-0.94;47.53;102335.41;5072799;28;20526;-73
2024/01/20 00:51:03;;;;;;;13.95;8.43;;;;;;;-0.95;47.29;102334.50;5070934;28;20078;-73
2024/01/20 00:53:32;;;;;;;14.50;8.43;;;;;;;-0.94;47.44;102338.09;5072633;28;20048;-73
2024/01/20 00:56:00;;;;;;;16.27;8.80;;;;;;;-0.97;47.42;102333.66;5072550;28;20049;-74
2024/01/20 00:58:28;;;;;;;13.65;8.52;;;;;;;-0.98;47.58;102339.94;5073250;28;20048;-73
2024/01/20 01:00:56;;;;;;;12.85;8.23;;;;;;;-0.99;47.48;102338.16;5072627;28;20036;-73
2024/01/20 01:03:24;;;;;;;13.50;8.57;;;;;;;-0.99;47.43;102337.28;5072622;28;20041;-73
2024/01/20 01:05:52;;;;;;;14.68;9.05;;;;;;;-1.00;47.44;102341.78;5071179;28;20119;-73
2024/01/20 01:08:20;;;;;;;13.02;8.45;;;;;;;-1.01;47.55;102336.41;5066861;28;20108;-73
2024/01/20 01:10:49;;;;;;;12.63;7.72;;;;;;;-1.00;47.59;102347.16;5052048;28;20146;-73
2024/01/20 01:13:17;;;;;;;15.27;8.20;;;;;;;-1.02;47.50;102348.06;5051747;28;20071;-73
2024/01/20 01:15:45;;;;;;;14.98;8.55;;;;;;;-1.04;47.59;102350.78;5051921;28;20060;-73
2024/01/20 01:18:13;;;;;;;13.05;8.30;;;;;;;-1.05;47.22;102349.03;5072333;28;20095;-73
2024/01/20 01:20:41;;;;;;;13.55;7.95;;;;;;;-1.06;47.22;102346.34;5072355;28;20136;-73
2024/01/20 01:23:09;;;;;;;14.27;8.70;;;;;;;-1.07;47.22;102352.63;5071770;28;20044;-73
2024/01/20 01:25:37;;;;;;;13.18;7.78;;;;;;;-1.08;47.33;102353.53;5070733;28;20109;-73
2024/01/20 01:28:06;;;;;;;15.00;8.75;;;;;;;-1.09;47.21;102362.50;5071904;28;20099;-73
2024/01/20 01:30:34;;;;;;;11.85;7.55;;;;;;;-1.11;47.31;102353.59;5072369;28;20519;-73
2024/01/20 01:33:02;;;;;;;14.43;8.38;;;;;;;-1.13;47.10;102358.13;5072122;28;20458;-74
2024/01/20 01:35:30;;;;;;;13.77;8.48;;;;;;;-1.15;47.13;102358.13;5072362;28;20045;-73
2024/01/20 01:37:58;;;;;;;12.32;7.75;;;;;;;-1.16;47.42;102359.03;5071691;28;20052;-74
2024/01/20 01:40:26;;;;;;;13.27;8.35;;;;;;;-1.18;47.32;102351.00;5072715;28;20072;-74
2024/01/20 01:42:56;;;;;;;13.38;8.13;;;;;;;-1.18;47.29;102352.78;5071582;28;20275;-74
2024/01/20 01:45:26;;;;;;;11.88;7.40;;;;;;;-1.18;47.48;102358.16;5070236;28;20044;-74
2024/01/20 01:47:56;;;;;;;12.57;8.40;;;;;;;-1.19;47.29;102361.75;5071968;28;20128;-73
2024/01/20 01:50:24;;;;;;;13.35;7.97;;;;;;;-1.20;47.46;102354.59;5057787;28;20041;-73
2024/01/20 01:52:54;;;;;;;13.07;8.57;;;;;;;-1.20;47.41;102365.34;5051689;28;20056;-73
2024/01/20 01:55:24;;;;;;;15.68;8.32;;;;;;;-1.21;47.27;102364.47;5051801;28;20099;-73
2024/01/20 01:57:52;;;;;;;11.88;8.10;;;;;;;-1.20;47.40;102370.72;5051815;28;20045;-73
2024/01/20 02:00:21;;;;;;;14.60;7.80;;;;;;;-1.21;47.46;102377.00;5051907;28;20052;-73
2024/01/20 02:02:50;;;;;;;13.63;7.97;;;;;;;-1.21;47.23;102380.59;5050010;28;20053;-73
2024/01/20 02:05:18;;;;;;;12.85;7.70;;;;;;;-1.22;47.28;102375.25;5051105;28;20124;-74
2024/01/20 02:07:48;;;;;;;13.25;8.38;;;;;;;-1.20;47.14;102378.78;5051773;28;20128;-73
2024/01/20 02:10:17;;;;;;;15.27;8.35;;;;;;;-1.22;47.18;102372.56;5052251;28;20041;-73
2024/01/20 02:12:46;;;;;;;14.32;8.18;;;;;;;-1.22;47.17;102375.25;5049775;28;20041;-73
2024/01/20 02:15:14;;;;;;;11.88;7.90;;;;;;;-1.23;47.19;102373.47;5050006;28;20044;-73
2024/01/20 02:17:53;;;;;;;13.07;8.30;;;;;;;-1.22;46.96;102386.91;5051057;28;20060;-73
2024/01/20 02:20:23;;;;;;;13.35;7.65;;;;;;;-1.23;47.03;102394.97;5051165;28;20037;-73
2024/01/20 02:22:52;;;;;;;13.20;8.13;;;;;;;-1.23;47.43;102384.22;5049845;28;20067;-74
2024/01/20 02:25:20;;;;;;;13.75;8.23;;;;;;;-1.23;47.38;102386.91;5051688;28;20068;-73
2024/01/20 02:27:48;;;;;;;13.20;8.80;;;;;;;-1.23;47.20;102385.13;5051257;28;20049;-73
2024/01/20 02:30:16;;;;;;;11.75;8.02;;;;;;;-1.23;47.13;102384.22;5049426;28;20095;-74
2024/01/20 02:32:44;;;;;;;12.40;7.32;;;;;;;-1.23;47.18;102389.59;5051117;28;20322;-73
2024/01/20 02:35:12;;;;;;;12.55;8.20;;;;;;;-1.23;47.09;102386.91;5051088;28;20044;-73
2024/01/20 02:37:40;;;;;;;12.90;7.93;;;;;;;-1.23;47.02;102392.28;5049627;28;20048;-73
2024/01/20 02:40:11;;;;;;;12.82;7.85;;;;;;;-1.22;47.07;102394.06;5048855;28;20053;-73
2024/01/20 02:42:38;;;;;;;13.93;8.25;;;;;;;-1.23;47.17;102387.81;5050464;28;20460;-73
2024/01/20 02:45:07;;;;;;;13.57;8.02;;;;;;;-1.22;47.04;102388.69;5050666;28;20068;-72
2024/01/20 02:47:35;;;;;;;12.48;8.02;;;;;;;-1.22;47.08;102388.69;5050853;28;20045;-72
2024/01/20 02:50:04;;;;;;;12.85;7.88;;;;;;;-1.23;47.29;102386.91;5058011;28;20127;-73
2024/01/20 02:52:32;;;;;;;15.18;8.07;;;;;;;-1.23;46.86;102392.28;5069198;28;20082;-73
2024/01/20 02:55:00;;;;;;;13.40;8.40;;;;;;;-1.24;46.93;102388.69;5071309;28;20048;-73
2024/01/20 02:57:29;;;;;;;15.70;8.63;;;;;;;-1.23;47.02;102400.34;5070411;28;20049;-73
2024/01/20 02:59:57;;;;;;;15.73;8.10;;;;;;;-1.25;47.12;102397.66;5070226;28;20048;-73
2024/01/20 03:02:25;;;;;;;14.40;7.63;;;;;;;-1.26;46.95;102400.38;5070351;28;20504;-73
2024/01/20 03:04:53;;;;;;;13.45;7.85;;;;;;;-1.27;46.75;102406.66;5070346;28;20068;-73
2024/01/20 03:07:21;;;;;;;15.50;8.60;;;;;;;-1.29;46.56;102398.59;5070726;28;20044;-74
2024/01/20 03:09:49;;;;;;;15.07;8.80;;;;;;;-1.30;46.63;102401.34;5070336;28;20123;-72
2024/01/20 03:12:17;;;;;;;14.57;8.45;;;;;;;-1.32;46.67;102400.47;5069546;28;20131;-72
2024/01/20 03:14:46;;;;;;;12.18;7.45;;;;;;;-1.32;46.89;102400.47;5069354;28;20082;-73
2024/01/20 03:17:14;;;;;;;13.30;7.97;;;;;;;-1.34;46.65;102396.91;5069799;28;20438;-72
2024/01/20 03:19:42;;;;;;;12.35;7.85;;;;;;;-1.35;46.87;102406.75;5069963;28;20036;-72
2024/01/20 03:22:10;;;;;;;13.48;8.02;;;;;;;-1.35;46.93;102403.19;5070599;28;20056;-73
2024/01/20 03:24:38;;;;;;;13.88;8.27;;;;;;;-1.37;46.89;102397.81;5069662;28;20569;-73
2024/01/20 03:27:06;;;;;;;14.55;8.63;;;;;;;-1.37;46.96;102394.25;5068800;28;20040;-74
2024/01/20 03:29:34;;;;;;;14.55;8.38;;;;;;;-1.38;46.68;102393.38;5070663;28;20741;-73
2024/01/20 03:32:03;;;;;;;12.00;8.27;;;;;;;-1.39;46.43;102398.78;5070288;28;20070;-73
2024/01/20 03:34:31;;;;;;;13.63;7.85;;;;;;;-1.42;46.53;102390.75;5070370;28;20045;-73
2024/01/20 03:36:59;;;;;;;14.60;8.40;;;;;;;-1.44;46.61;102396.13;5069892;28;20052;-73
2024/01/20 03:39:27;;;;;;;13.90;8.45;;;;;;;-1.45;46.48;102396.16;5068309;28;20040;-73
2024/01/20 03:41:55;;;;;;;12.85;8.13;;;;;;;-1.46;46.74;102397.94;5069843;28;20051;-73
2024/01/20 03:44:23;;;;;;;13.23;8.27;;;;;;;-1.46;46.69;102400.63;5069772;28;20036;-73
2024/01/20 03:46:51;;;;;;;12.35;7.90;;;;;;;-1.48;46.66;102399.78;5068404;28;20075;-73
2024/01/20 03:49:20;;;;;;;13.52;8.38;;;;;;;-1.47;46.72;102398.00;5070299;28;20464;-73
2024/01/20 03:51:48;;;;;;;12.70;8.60;;;;;;;-1.49;46.67;102400.69;5069384;28;20098;-73
2024/01/20 03:54:15;;;;;;;15.80;8.40;;;;;;;-1.49;46.74;102402.47;5069270;28;20068;-73
2024/01/20 03:56:43;;;;;;;13.70;8.93;;;;;;;-1.49;46.61;102399.81;5069888;28;20086;-73
2024/01/20 03:59:12;;;;;;;14.43;8.55;;;;;;;-1.49;46.77;102407.84;5069554;28;20062;-73
2024/01/20 04:01:40;;;;;;;13.30;8.45;;;;;;;-1.50;46.84;102404.28;5069470;28;20127;-73
2024/01/20 04:04:08;;;;;;;12.13;7.95;;;;;;;-1.50;46.50;102420.38;5070149;28;20052;-73
2024/01/20 04:06:37;;;;;;;16.08;8.63;;;;;;;-1.50;46.74;102412.34;5069786;28;20061;-73
2024/01/20 04:09:05;;;;;;;15.98;8.82;;;;;;;-1.51;46.57;102418.59;5069538;28;20560;-73
2024/01/20 04:11:33;;;;;;;15.88;8.98;;;;;;;-1.51;46.60;102429.34;5069062;28;20048;-73
2024/01/20 04:14:01;;;;;;;14.48;8.70;;;;;;;-1.51;46.48;102432.03;5069536;28;20040;-73
2024/01/20 04:16:30;;;;;;;15.23;8.57;;;;;;;-1.50;46.54;102428.44;5068990;28;20044;-73
2024/01/20 04:18:58;;;;;;;15.18;8.55;;;;;;;-1.50;46.57;102427.56;5070062;28;20512;-73
2024/01/20 04:21:26;;;;;;;16.10;8.85;;;;;;;-1.50;46.56;102438.28;5068601;28;20515;-73
2024/01/20 04:23:56;;;;;;;13.90;8.45;;;;;;;-1.51;46.34;102437.41;5069452;28;20057;-73
2024/01/20 04:26:24;;;;;;;13.45;8.45;;;;;;;-1.51;46.65;102464.25;5069784;28;20041;-73
2024/01/20 04:28:52;;;;;;;14.45;8.32;;;;;;;-1.52;46.49;102451.72;5069555;28;21578;-73
2024/01/20 04:31:20;;;;;;;14.88;9.25;;;;;;;-1.53;46.53;102441.91;5068374;28;20044;-73
2024/01/20 04:33:47;;;;;;;14.48;8.50;;;;;;;-1.52;46.67;102453.53;5069506;28;20127;-73
2024/01/20 04:36:16;;;;;;;15.80;8.98;;;;;;;-1.53;46.40;102454.44;5069432;28;20045;-73
2024/01/20 04:38:44;;;;;;;14.25;8.55;;;;;;;-1.55;46.56;102451.78;5069724;28;20529;-73
2024/01/20 04:41:13;;;;;;;15.63;8.57;;;;;;;-1.54;46.23;102456.22;5069480;28;20114;-73
2024/01/20 04:43:41;;;;;;;16.80;8.80;;;;;;;-1.56;46.52;102458.06;5069565;28;20136;-73
2024/01/20 04:46:09;;;;;;;15.85;8.90;;;;;;;-1.56;46.66;102455.38;5069633;28;20040;-72
2024/01/20 04:48:36;;;;;;;14.48;8.88;;;;;;;-1.57;46.46;102457.16;5068821;28;20541;-73
2024/01/20 04:51:05;;;;;;;14.45;8.40;;;;;;;-1.56;46.20;102447.31;5069105;28;20055;-73
2024/01/20 04:53:34;;;;;;;14.25;8.23;;;;;;;-1.57;46.45;102457.16;5067727;28;20044;-73
2024/01/20 04:56:03;;;;;;;15.38;9.23;;;;;;;-1.55;46.29;102457.16;5068270;28;20056;-72
2024/01/20 04:58:33;;;;;;;13.50;8.48;;;;;;;-1.57;46.20;102457.16;5068869;28;20064;-73
2024/01/20 05:01:01;;;;;;;14.90;8.40;;;;;;;-1.57;46.59;102458.97;5069185;28;20052;-72
2024/01/20 05:03:29;;;;;;;15.10;8.77;;;;;;;-1.58;46.37;102462.56;5070015;28;20048;-73
2024/01/20 05:05:57;;;;;;;14.70;8.50;;;;;;;-1.58;46.31;102468.81;5071493;28;20055;-73
2024/01/20 05:08:25;;;;;;;14.98;8.07;;;;;;;-1.58;46.43;102475.97;5072970;28;20128;-72
2024/01/20 05:10:53;;;;;;;15.93;9.35;;;;;;;-1.59;46.37;102467.03;5071087;28;20052;-73
2024/01/20 05:13:20;;;;;;;14.35;8.65;;;;;;;-1.61;46.04;102471.53;5072617;28;20097;-72
2024/01/20 05:15:50;;;;;;;14.63;8.45;;;;;;;-1.60;46.25;102475.97;5074009;28;20044;-72
2024/01/20 05:18:18;;;;;;;15.07;8.75;;;;;;;-1.62;46.01;102483.16;5072533;28;20099;-73
2024/01/20 05:20:46;;;;;;;12.48;7.90;;;;;;;-1.63;46.02;102484.09;5071229;28;20052;-73
2024/01/20 05:23:14;;;;;;;13.07;7.78;;;;;;;-1.64;46.23;102492.16;5071461;28;20094;-72
2024/01/20 05:25:42;;;;;;;16.35;9.10;;;;;;;-1.65;46.08;102491.28;5071018;28;20068;-73
2024/01/20 05:28:10;;;;;;;14.85;8.70;;;;;;;-1.66;46.08;102493.97;5073110;28;20040;-72
2024/01/20 05:30:37;;;;;;;13.68;8.40;;;;;;;-1.67;45.92;102492.19;5072284;28;20048;-73
2024/01/20 05:33:08;;;;;;;16.65;8.73;;;;;;;-1.67;45.84;102486.81;5071381;28;20055;-73
2024/01/20 05:35:37;;;;;;;13.02;8.57;;;;;;;-1.70;45.85;102481.47;5072395;28;20048;-73
2024/01/20 05:38:05;;;;;;;12.85;8.27;;;;;;;-1.72;46.14;102491.34;5072192;28;20044;-73
2024/01/20 05:40:33;;;;;;;13.82;8.25;;;;;;;-1.74;46.07;102499.41;5071127;28;20155;-72
2024/01/20 05:43:01;;;;;;;13.00;8.00;;;;;;;-1.76;45.66;102498.53;5072381;28;20487;-73
2024/01/20 05:45:29;;;;;;;12.30;7.60;;;;;;;-1.77;45.79;102496.75;5070693;28;20139;-72
2024/01/20 05:47:56;;;;;;;13.50;7.97;;;;;;;-1.78;45.89;102502.13;5072192;28;20534;-72
2024/01/20 05:50:26;;;;;;;14.25;8.15;;;;;;;-1.78;46.04;102503.03;5072135;28;20529;-73
2024/01/20 05:52:54;;;;;;;16.27;8.70;;;;;;;-1.79;45.82;102508.44;5070834;28;20114;-73
2024/01/20 05:55:22;;;;;;;13.82;8.18;;;;;;;-1.80;45.75;102502.19;5072228;28;20414;-72
2024/01/20 05:57:50;;;;;;;13.60;8.00;;;;;;;-1.79;46.13;102508.44;5071763;28;20044;-73
2024/01/20 06:00:20;;;;;;;15.48;7.95;;;;;;;-1.79;46.23;102497.69;5071912;28;20135;-73
2024/01/20 06:02:49;;;;;;;16.13;8.52;;;;;;;-1.79;46.00;102505.75;5071736;28;20049;-72
2024/01/20 06:05:16;;;;;;;14.80;8.05;;;;;;;-1.79;46.03;102509.28;5070540;28;20047;-72
2024/01/20 06:07:46;;;;;;;12.40;7.82;;;;;;;-1.77;45.80;102511.97;5070542;28;20048;-73
2024/01/20 06:10:14;;;;;;;14.75;8.18;;;;;;;-1.77;46.20;102511.97;5071918;28;20119;-73
2024/01/20 06:12:42;;;;;;;12.20;7.72;;;;;;;-1.76;46.09;102516.44;5071468;28;20043;-72
2024/01/20 06:15:10;;;;;;;13.10;7.70;;;;;;;-1.76;45.98;102511.94;5071799;28;20049;-73
2024/01/20 06:17:38;;;;;;;14.77;7.88;;;;;;;-1.76;45.94;102517.31;5071595;28;20059;-72
2024/01/20 06:20:07;;;;;;;15.80;8.40;;;;;;;-1.75;45.70;102518.22;5071281;28;20098;-72
2024/01/20 06:22:37;;;;;;;15.93;8.52;;;;;;;-1.77;45.67;102518.22;5071262;28;20051;-72
2024/01/20 06:25:07;;;;;;;14.32;8.27;;;;;;;-1.76;45.42;102519.13;5071905;28;20055;-72
2024/01/20 06:27:35;;;;;;;13.85;8.20;;;;;;;-1.79;45.43;102522.72;5071385;28;20041;-72
2024/01/20 06:42:50;;;;;;;14.35;7.93;;;;;;;-2.01;45.88;102532.75;4927725;29;20167;-86
2024/01/20 06:45:21;;;;;;;13.15;6.90;;;;;;;-1.98;45.51;102543.47;4957856;28;20406;-86
2024/01/20 06:47:49;;;;;;;15.00;7.68;;;;;;;-1.97;45.83;102539.91;5066457;28;20044;-86
2024/01/20 06:50:18;;;;;;;15.32;8.25;;;;;;;-1.95;45.80;102539.84;5054084;28;20041;-86
2024/01/20 06:52:46;;;;;;;13.82;8.18;;;;;;;-1.96;45.84;102535.44;5053430;28;20048;-85
2024/01/20 06:55:17;;;;;;;13.65;7.60;;;;;;;-1.95;45.78;102537.19;5049584;28;20052;-84
2024/01/20 06:57:45;;;;;;;15.05;8.15;;;;;;;-1.97;45.64;102539.00;5047780;28;20515;-85
2024/01/20 07:00:16;;;;;;;15.48;8.27;;;;;;;-1.95;45.56;102543.44;5071269;28;20049;-86
2024/01/20 07:02:44;;;;;;;13.85;8.45;;;;;;;-1.96;45.94;102549.72;5040235;28;20037;-86
2024/01/20 07:05:12;;;;;;;14.63;7.35;;;;;;;-1.95;45.57;102547.91;5055406;28;20115;-86
2024/01/20 07:07:41;;;;;;;11.77;7.32;;;;;;;-1.93;45.71;102543.44;5048238;28;20049;-86
2024/01/20 07:10:10;;;;;;;13.82;8.05;;;;;;;-1.93;45.45;102546.09;5050007;28;20032;-86
2024/01/20 07:12:38;;;;;;;12.65;7.80;;;;;;;-1.92;45.43;102545.22;5065734;28;20037;-87
2024/01/20 07:15:08;;;;;;;15.50;8.55;;;;;;;-1.91;45.54;102546.09;5083159;28;20045;-87
2024/01/20 07:17:39;;;;;;;15.13;7.82;;;;;;;-1.91;45.68;102557.72;5070425;28;20083;-86
2024/01/20 07:20:11;;;;;;;17.05;7.85;;;;;;;-1.91;45.41;102563.09;5068433;28;20044;-85
2024/01/20 07:22:41;;;;;;;13.68;8.18;;;;;;;-1.89;45.63;102569.34;5060669;28;20055;-86
2024/01/20 07:25:11;;;;;;;16.77;8.75;;;;;;;-1.88;45.61;102564.88;5054566;28;20063;-85
2024/01/20 07:27:39;;;;;;;15.82;8.48;;;;;;;-1.90;45.42;102566.66;5062334;28;20044;-87
2024/01/20 07:30:09;;;;;;;15.27;7.97;;;;;;;-1.87;45.59;102567.50;5058307;28;20063;-86
2024/01/20 07:32:41;;;;;;;13.80;7.30;;;;;;;-1.84;45.38;102580.91;5082717;28;20121;-85
2024/01/20 07:35:10;;;;;;;13.82;8.15;;;;;;;-1.86;45.62;102576.44;5075065;28;20094;-85
2024/01/20 07:37:38;;;;;;;13.82;7.47;;;;;;;-1.85;45.76;102583.59;5064669;28;20052;-86
2024/01/20 07:40:09;;;;;;;13.43;7.40;;;;;;;-1.82;45.59;102587.16;5057885;28;20132;-84
2024/01/20 07:42:40;;;;;;;15.13;7.75;;;;;;;-1.81;45.38;102593.44;5098611;28;20410;-86
2024/01/20 07:45:09;;;;;;;14.40;8.00;;;;;;;-1.80;45.38;102595.22;5080851;28;20032;-87
2024/01/20 07:47:41;;;;;;;13.85;7.75;;;;;;;-1.80;45.44;102587.16;5096507;28;20063;-87
2024/01/20 07:50:10;;;;;;;13.00;7.63;;;;;;;-1.82;45.39;102589.84;5074372;28;20048;-85
2024/01/20 07:52:38;;;;;;;14.52;8.07;;;;;;;-1.80;45.41;102584.47;5070393;28;20040;-86
2024/01/20 07:55:08;;;;;;;13.25;7.80;;;;;;;-1.79;45.34;102599.69;5075106;28;20047;-86
2024/01/20 07:57:37;;;;;;;13.85;8.25;;;;;;;-1.80;45.47;102609.53;5072694;28;20051;-87
2024/01/20 08:00:07;;;;;;;16.55;9.10;;;;;;;-1.81;45.39;102602.38;5063803;28;20048;-86
2024/01/20 08:02:39;;;;;;;14.60;8.32;;;;;;;-1.79;45.40;102592.50;5077078;28;20050;-86
2024/01/20 08:05:10;;;;;;;16.75;8.48;;;;;;;-1.80;45.38;102592.53;5065134;28;20044;-87
2024/01/20 08:07:38;;;;;;;13.45;8.02;;;;;;;-1.79;45.48;102591.63;5070607;28;20052;-86
2024/01/20 08:10:15;;;;;;;15.60;8.90;;;;;;;-1.75;45.38;102605.00;5056936;28;20102;-86
2024/01/20 08:12:45;;;;;;;17.00;10.10;;;;;;;-1.77;45.28;102609.47;5076087;28;20040;-85
2024/01/20 08:15:14;;;;;;;16.30;9.25;;;;;;;-1.75;45.54;102615.72;5064876;28;20051;-86
2024/01/20 08:18:12;;;;;;;15.27;8.68;;;;;;;-1.72;45.03;102615.72;5077514;28;20051;-86
2024/01/20 08:20:43;;;;;;;14.68;8.43;;;;;;;-1.73;45.25;102627.34;5073093;28;20086;-87
2024/01/20 08:23:12;;;;;;;15.57;8.48;;;;;;;-1.73;45.41;102615.72;5085330;28;20048;-86
2024/01/20 08:25:40;;;;;;;14.48;8.07;;;;;;;-1.72;45.44;102617.50;5091215;28;20089;-86
2024/01/20 08:28:09;;;;;;;16.80;8.60;;;;;;;-1.74;45.26;102609.47;5084304;28;20076;-85
2024/01/20 08:30:37;;;;;;;14.40;8.82;;;;;;;-1.72;45.47;102607.66;5080378;28;20051;-86
2024/01/20 08:33:05;;;;;;;14.80;8.32;;;;;;;-1.71;45.34;102600.50;5068155;28;20036;-86
2024/01/20 08:35:36;;;;;;;14.02;8.32;;;;;;;-1.70;45.63;102608.50;5066486;28;20056;-86
2024/01/20 08:38:06;;;;;;;13.18;7.82;;;;;;;-1.70;45.47;102603.16;5069808;28;20059;-85
2024/01/20 08:40:34;;;;;;;13.60;7.85;;;;;;;-1.71;45.37;102601.41;5073388;28;20383;-85
2024/01/20 08:43:03;;;;;;;14.23;9.05;;;;;;;-1.73;45.20;102600.50;5075351;28;20040;-86
2024/01/20 08:45:31;;;;;;;13.50;8.65;;;;;;;-1.72;45.14;102604.97;5088424;28;20127;-86
2024/01/20 08:48:00;;;;;;;14.15;8.02;;;;;;;-1.75;45.04;102602.31;5088666;28;20040;-86
2024/01/20 08:50:28;;;;;;;14.25;7.47;;;;;;;-1.73;44.96;102602.31;5085034;28;20048;-85
2024/01/20 08:52:58;;;;;;;12.85;7.53;;;;;;;-1.74;45.03;102612.16;5070702;28;20043;-86
2024/01/20 08:55:29;;;;;;;12.38;7.03;;;;;;;-1.74;45.15;102614.84;5075970;28;20044;-86
2024/01/20 08:57:57;;;;;;;12.18;6.88;;;;;;;-1.75;45.10;102614.84;5077493;28;20048;-86
2024/01/20 09:00:25;;;;;;;16.52;7.72;;;;;;;-1.78;45.27;102614.84;5075597;28;20288;-85
2024/01/20 09:02:55;;;;;;;12.35;7.22;;;;;;;-1.77;45.15;102617.53;5068930;28;20114;-86
2024/01/20 09:05:23;;;;;;;11.90;6.78;;;;;;;-1.76;45.39;102624.69;5092017;28;20036;-86
2024/01/20 09:07:51;;;;;;;12.27;7.32;;;;;;;-1.76;45.62;102622.00;5076991;28;20074;-85
2024/01/20 09:10:20;;;;;;;11.75;6.90;;;;;;;-1.75;45.73;102626.47;5070537;28;20036;-86
2024/01/20 09:12:49;;;;;;;14.95;7.63;;;;;;;-1.71;45.59;102627.34;5073913;28;20040;-85
2024/01/20 09:15:17;;;;;;;14.60;8.05;;;;;;;-1.71;45.89;102624.66;5074115;28;20032;-86
2024/01/20 09:17:48;;;;;;;13.35;7.47;;;;;;;-1.68;45.90;102625.50;5083704;28;20051;-86
2024/01/20 09:20:17;;;;;;;12.57;7.70;;;;;;;-1.63;46.05;102623.69;5075506;28;20040;-86
2024/01/20 09:22:46;;;;;;;13.82;8.38;;;;;;;-1.59;45.75;102628.13;5080147;28;20139;-85
2024/01/20 09:25:16;;;;;;;15.02;8.10;;;;;;;-1.53;45.97;102626.25;5068932;28;20055;-85
2024/01/20 09:27:51;;;;;;;13.85;7.75;;;;;;;-1.51;45.69;102625.34;5092432;28;20048;-85
2024/01/20 09:30:23;;;;;;;13.27;7.45;;;;;;;-1.47;45.74;102620.84;5067160;28;20055;-85
2024/01/20 09:32:53;;;;;;;16.33;8.07;;;;;;;-1.41;45.96;102631.53;5058904;28;20052;-84
2024/01/20 09:35:23;;;;;;;15.75;8.10;;;;;;;-1.39;45.58;102619.00;5067667;28;20041;-85
2024/01/20 09:37:51;;;;;;;15.57;8.15;;;;;;;-1.33;46.09;102632.34;5073253;28;20052;-86
2024/01/20 09:40:20;;;;;;;15.88;8.23;;;;;;;-1.30;46.00;102627.84;5071188;28;20047;-86
2024/01/20 09:42:49;;;;;;;14.73;8.13;;;;;;;-1.24;45.80;102619.72;5091652;28;20074;-86
2024/01/20 09:45:19;;;;;;;15.63;7.82;;;;;;;-1.19;46.19;102622.34;5071104;28;20119;-86
2024/01/20 09:47:48;;;;;;;13.93;7.85;;;;;;;-1.11;46.39;102635.69;5087474;28;20418;-85
2024/01/20 09:50:16;;;;;;;13.05;7.28;;;;;;;-1.04;46.51;102645.47;5061202;28;20468;-86
2024/01/20 09:52:55;;;;;;;11.52;7.07;;;;;;;-0.98;45.19;102646.31;5081511;28;20048;-85
2024/01/20 09:55:26;;;;;;;14.55;8.20;;;;;;;-0.93;45.90;102646.25;5069644;28;20123;-85
2024/01/20 09:57:55;;;;;;;13.73;7.40;;;;;;;-0.88;46.01;102639.91;5091314;28;20559;-86
2024/01/20 10:00:26;;;;;;;15.45;7.97;;;;;;;-0.82;46.02;102644.34;5070411;28;20112;-85
2024/01/20 10:03:03;;;;;;;14.93;7.85;;;;;;;-0.74;45.84;102652.31;5072531;28;20566;-85
2024/01/20 10:05:38;;;;;;;14.95;8.02;;;;;;;-0.71;46.09;102652.25;5064204;28;20067;-86
2024/01/20 10:08:07;;;;;;;12.88;7.75;;;;;;;-0.67;45.69;102646.81;5070663;28;20044;-86
2024/01/20 10:10:35;;;;;;;14.48;8.23;;;;;;;-0.62;45.69;102654.81;5071443;28;20044;-85
2024/01/20 10:13:04;;;;;;;13.20;7.80;;;;;;;-0.57;45.98;102661.94;5079047;28;20040;-86
2024/01/20 10:15:34;;;;;;;14.68;7.57;;;;;;;-0.54;45.67;102650.22;5068326;28;20261;-87
2024/01/20 10:18:08;;;;;;;12.80;7.95;;;;;;;-0.45;45.34;102664.47;5071159;28;20048;-87
2024/01/20 10:20:37;;;;;;;12.73;7.63;;;;;;;-0.43;45.94;102659.06;5069609;28;20499;-85
2024/01/20 10:23:06;;;;;;;11.90;7.13;;;;;;;-0.36;45.86;102654.50;5089828;28;20043;-85
2024/01/20 10:25:35;;;;;;;11.55;7.03;;;;;;;-0.31;45.95;102653.53;5106402;28;20088;-86
2024/01/20 10:28:18;;;;;;;12.98;7.40;;;;;;;-0.24;46.13;102654.34;5073102;28;20096;-85
2024/01/20 10:30:48;;;;;;;14.02;7.47;;;;;;;-0.18;45.92;102652.44;5068928;28;20048;-85
2024/01/20 10:33:16;;;;;;;14.10;7.85;;;;;;;-0.12;46.08;102646.97;5079043;28;20193;-87
2024/01/20 10:35:47;;;;;;;12.77;7.32;;;;;;;-0.05;45.90;102647.75;5086248;28;20103;-86
2024/01/20 10:38:20;;;;;;;15.48;7.78;;;;;;;0.05;45.30;102648.50;5081768;28;20048;-86
2024/01/20 10:40:51;;;;;;;12.75;7.40;;;;;;;0.06;45.66;102639.53;5084904;28;20037;-85
2024/01/20 10:43:19;;;;;;;14.93;8.40;;;;;;;0.14;45.82;102629.53;5078417;28;20039;-85
2024/01/20 10:45:55;;;;;;;13.93;8.07;;;;;;;0.21;44.77;102636.56;5073048;28;20040;-84
2024/01/20 10:48:27;;;;;;;13.73;7.57;;;;;;;0.24;45.31;102633.84;5070214;28;20063;-85
2024/01/20 10:50:59;;;;;;;14.48;8.10;;;;;;;0.26;45.20;102629.34;5066791;28;20066;-86
2024/01/20 10:53:28;;;;;;;15.35;7.97;;;;;;;0.33;45.50;102633.69;5068268;28;20039;-85
2024/01/20 10:55:58;;;;;;;14.68;8.43;;;;;;;0.38;45.10;102625.53;5079933;28;20058;-88
2024/01/20 10:58:34;;;;;;;14.38;8.35;;;;;;;0.39;44.40;102612.03;5075552;28;20044;-87
2024/01/20 11:01:05;;;;;;;16.02;8.38;;;;;;;0.43;45.20;102616.47;5071906;28;20105;-87
2024/01/20 11:03:33;;;;;;;13.95;7.75;;;;;;;0.47;45.28;102617.28;5084040;28;20388;-87
2024/01/20 11:06:02;;;;;;;14.52;8.32;;;;;;;0.49;45.29;102616.34;5076158;28;20044;-87
2024/01/20 11:08:32;;;;;;;13.60;7.63;;;;;;;0.51;44.90;102609.16;5078370;28;20040;-85
2024/01/20 11:11:00;;;;;;;14.88;7.80;;;;;;;0.56;44.87;102601.84;5062891;28;20040;-86
2024/01/20 11:13:37;;;;;;;13.32;7.60;;;;;;;0.61;44.63;102601.75;5074098;28;20529;-87
2024/01/20 11:16:33;;;;;;;12.55;7.57;;;;;;;0.64;44.70;102597.22;5073738;28;20416;-87
2024/01/20 11:19:08;;;;;;;14.15;8.35;;;;;;;0.69;44.17;102592.63;5071032;28;20094;-86
2024/01/20 11:21:37;;;;;;;15.02;8.65;;;;;;;0.72;45.42;102597.97;5069535;28;20109;-87
2024/01/20 11:24:06;;;;;;;13.98;8.27;;;;;;;0.76;44.97;102589.81;5074902;28;20461;-87
2024/01/20 11:26:35;;;;;;;13.30;7.65;;;;;;;0.84;44.68;102598.66;5075430;28;20381;-87
2024/01/20 11:29:07;;;;;;;14.07;8.25;;;;;;;0.88;44.53;102595.00;5072835;28;20079;-88
2024/01/20 11:31:36;;;;;;;14.98;9.00;;;;;;;0.91;44.64;102592.25;5075136;28;20044;-86
2024/01/20 11:34:05;;;;;;;15.60;8.60;;;;;;;0.92;44.91;102588.63;5071618;28;20037;-87
2024/01/20 11:36:35;;;;;;;12.02;7.35;;;;;;;0.97;44.82;102594.81;5073024;28;20049;-87
2024/01/20 11:39:05;;;;;;;13.75;8.05;;;;;;;0.99;44.81;102601.06;5072463;28;20048;-87